Portada
METAR-TAF:

METAR-TAF

Aeropuertos :

Dubuque, Iowa, Estados Unidos

latitud: 42-23-52N, longitud: 090-42-13W, altitud: 328 m

Observación

El informe se hizo hace 39 minutos, a las 06:53 UTC
Viento calma
Temperatura 11°C
Humedad 71%
Presión 1025 hPa
Visibilidad: 16.1 km
Cielo despejado

METAR: KDBQ 310653Z 00000KT 10SM CLR 11/06 A3027 RMK AO2 SLP249 T01110061 $

Hora: 02:32 (07:32 UTC)

Pronóstico

El informe se hizo hace 2 horas y 12 minutos, a las 05:20 UTC
Pronóstico válido del 31 a las 06 UTC al 01 a las 06 UTC
Viento 6 kt del norte-noreste
Visibilidad: 10 km
Cielo despejado
A partir de las 31 a las 1300 UTC
Viento 7 kt del sureste
Visibilidad: 10 km
Nubes dispersas a una altura de 15000 ft
A partir de las 31 a las 1800 UTC
Viento 8 kt del sur
Visibilidad: 10 km
Nubes dispersas a una altura de 10000 ft

TAF: KDBQ 310520Z 3106/0106 02006KT P6SM SKC FM311300 13007KT P6SM SCT150 FM311800 18008KT P6SM SCT100

Observaciones y pronósticos meteorológicos de más de 4000 aeropuertos (mensajes METAR y TAF).

Los puntos amarillos y rojos representan las estaciones disponibles.

Ponga el ratón en el punto deseado para ver el nombre de la estación.

Haga clic para ver las observaciones y los pronósticos meteorológicos.

Para cambiar el mapa : haga clic en los botones verdes con una cruz de color negro para hacer un zoom, en el botón verde con un guión para alejar o en las flechas verdes para mapas adyacentes.


METAR-TAF: